Austin (LCRA Redbud)'s Hourly Summary for Saturday, July 7, 2018
Hour Temp
(f)
RH
(%)
Solar Rad.
(MJ/m2)
Rainfall
(in)
Wind
(mph)
7/7/2018 12:00 AM 83 60 0 0 0.8
7/7/2018 1:00 AM 81 67 0 0 0.85
7/7/2018 2:00 AM 79 79 0 0 0.58
7/7/2018 3:00 AM 76 84 0 0 0
7/7/2018 4:00 AM 74 85 0 0 0
7/7/2018 5:00 AM 74 85 0 0 0.17
7/7/2018 6:00 AM 73 86 0 0 0.04
7/7/2018 7:00 AM 74 86 0.02 0 0
7/7/2018 8:00 AM 78 82 0.24 0 0
7/7/2018 9:00 AM 82 71 0.86 0 0.68
7/7/2018 10:00 AM 82 69 0.93 0 0.55
7/7/2018 11:00 AM 80 85 0.42 0.01 2.09
7/7/2018 12:00 PM 79 85 0.54 0 0.3
7/7/2018 1:00 PM 85 74 2.59 0 0.87
7/7/2018 2:00 PM 89 62 3.39 0 0.56
7/7/2018 3:00 PM 91 49 3.19 0.01 1.19
7/7/2018 4:00 PM 91 51 2.95 0 2.53
7/7/2018 5:00 PM 88 52 2.3 0 2.87
7/7/2018 6:00 PM 86 58 0.62 0 1.73
7/7/2018 7:00 PM 84 58 0.38 0 1.15
7/7/2018 8:00 PM 82 61 0.11 0 1.55
7/7/2018 9:00 PM 80 69 0.02 0 1.33
7/7/2018 10:00 PM 78 72 0 0 0.29
7/7/2018 11:00 PM 77 81 0 0 0.03
Data Summary 81 71 18.56 0.02 0.84